createdAt,value
2022-09-26T00:01:42.587Z,11.75
2022-09-26T00:04:15.899Z,10.70
2022-09-26T00:06:44.490Z,11.13
2022-09-26T00:09:15.348Z,10.18
2022-09-26T00:11:45.339Z,11.55
2022-09-26T00:14:15.361Z,10.95
2022-09-26T00:16:44.033Z,8.50
2022-09-26T00:19:12.439Z,10.57
2022-09-26T00:21:40.958Z,10.85
2022-09-26T00:24:09.712Z,11.70
2022-09-26T00:26:39.510Z,10.40
2022-09-26T00:29:10.603Z,10.00
2022-09-26T00:31:40.954Z,11.15
2022-09-26T00:34:10.939Z,8.90
2022-09-26T00:36:39.318Z,9.27
2022-09-26T00:39:08.494Z,9.75
2022-09-26T00:41:37.666Z,10.73
2022-09-26T00:44:36.456Z,10.15
2022-09-26T00:47:05.492Z,8.32
2022-09-26T00:49:35.272Z,9.73
2022-09-26T00:52:06.865Z,10.55
2022-09-26T00:54:35.902Z,10.65
2022-09-26T00:57:10.949Z,11.88
2022-09-26T00:59:46.601Z,11.25
2022-09-26T01:02:15.675Z,12.23
2022-09-26T01:04:45.712Z,9.77
2022-09-26T01:07:20.182Z,12.50
2022-09-26T01:09:48.977Z,11.02
2022-09-26T01:12:17.975Z,11.20
2022-09-26T01:14:48.552Z,9.48
2022-09-26T01:19:50.850Z,10.88
2022-09-26T01:23:05.831Z,11.80
2022-09-26T01:25:56.441Z,12.00
2022-09-26T01:28:36.483Z,10.10
2022-09-26T01:31:16.047Z,10.88
2022-09-26T01:33:52.157Z,10.63
2022-09-26T01:36:51.646Z,12.30
2022-09-26T01:39:41.868Z,13.50
2022-09-26T01:42:18.141Z,12.13
2022-09-26T01:44:51.438Z,14.70
2022-09-26T01:47:24.294Z,11.52
2022-09-26T01:49:56.169Z,11.63
2022-09-26T01:52:30.493Z,12.38
2022-09-26T01:55:03.296Z,12.25
2022-09-26T01:57:33.628Z,12.85
2022-09-26T02:00:05.605Z,13.45
2022-09-26T02:02:39.844Z,13.70
2022-09-26T02:05:10.330Z,12.85
2022-09-26T02:07:41.523Z,18.95
2022-09-26T02:10:13.405Z,12.07
2022-09-26T02:12:43.186Z,13.00
2022-09-26T02:15:15.312Z,16.15
2022-09-26T02:17:48.753Z,13.15
2022-09-26T02:20:20.487Z,14.43
2022-09-26T02:22:48.980Z,15.15
2022-09-26T02:25:18.313Z,14.32
2022-09-26T02:27:46.745Z,14.90
2022-09-26T02:30:15.144Z,16.00
2022-09-26T02:32:44.824Z,13.60
2022-09-26T02:35:30.119Z,16.57
2022-09-26T02:37:59.244Z,14.35
2022-09-26T02:40:35.359Z,14.45
2022-09-26T02:43:12.482Z,14.43
2022-09-26T02:45:44.920Z,15.30
2022-09-26T02:48:23.232Z,13.82
2022-09-26T02:51:02.729Z,17.75
2022-09-26T02:53:48.482Z,15.02
2022-09-26T02:56:23.546Z,17.30
2022-09-26T02:59:11.386Z,15.40
2022-09-26T03:01:43.826Z,15.77
2022-09-26T03:04:16.596Z,16.23
2022-09-26T03:06:47.484Z,14.82
2022-09-26T03:09:17.128Z,15.77
2022-09-26T03:11:45.743Z,14.70
2022-09-26T03:14:14.968Z,19.73
2022-09-26T03:16:45.650Z,14.43
2022-09-26T03:19:19.824Z,17.40
2022-09-26T03:21:48.357Z,15.43
2022-09-26T03:24:17.417Z,16.73
2022-09-26T03:26:46.623Z,16.58
2022-09-26T03:29:15.140Z,15.90
2022-09-26T03:31:45.158Z,15.80
2022-09-26T03:34:13.673Z,15.70
2022-09-26T03:36:43.522Z,16.27
2022-09-26T03:39:11.883Z,16.65
2022-09-26T03:41:40.283Z,17.67
2022-09-26T03:44:08.587Z,15.95
2022-09-26T03:46:40.004Z,18.05
2022-09-26T03:49:08.570Z,16.98
2022-09-26T03:51:36.861Z,17.67
2022-09-26T03:54:06.582Z,14.82
2022-09-26T03:56:34.970Z,17.23
2022-09-26T03:59:03.457Z,17.35
2022-09-26T04:01:31.835Z,16.55
2022-09-26T04:04:00.150Z,16.38
2022-09-26T04:06:28.963Z,18.42
2022-09-26T04:08:57.487Z,18.23
2022-09-26T04:11:27.224Z,20.20
2022-09-26T04:13:55.664Z,17.17
2022-09-26T04:16:24.683Z,19.77
2022-09-26T04:18:56.752Z,18.02
2022-09-26T04:21:26.079Z,19.02
2022-09-26T04:23:55.246Z,18.67
2022-09-26T04:26:24.749Z,20.58
2022-09-26T04:28:56.589Z,19.33
2022-09-26T04:31:27.575Z,20.70
2022-09-26T04:33:56.206Z,18.83
2022-09-26T04:36:24.916Z,18.10
2022-09-26T04:38:53.295Z,20.58
2022-09-26T04:41:22.834Z,27.35
2022-09-26T04:43:51.153Z,21.88
2022-09-26T04:46:26.929Z,19.45
2022-09-26T04:48:59.882Z,22.90
2022-09-26T04:51:29.460Z,21.50
2022-09-26T04:53:58.089Z,22.15
2022-09-26T04:56:28.000Z,21.83
2022-09-26T04:58:57.559Z,21.33
2022-09-26T05:01:27.763Z,21.95
2022-09-26T05:04:28.003Z,22.70
2022-09-26T05:06:57.911Z,21.20
2022-09-26T05:09:26.503Z,22.02
2022-09-26T05:11:54.871Z,22.73
2022-09-26T05:14:23.336Z,22.60
2022-09-26T05:16:53.506Z,22.88
2022-09-26T05:19:22.259Z,22.35
2022-09-26T05:21:51.591Z,19.00
2022-09-26T05:24:37.416Z,21.17
2022-09-26T05:27:06.995Z,22.02
2022-09-26T05:29:35.308Z,19.65
2022-09-26T05:32:05.041Z,19.63
2022-09-26T05:37:26.033Z,20.35
2022-09-26T05:40:12.091Z,21.15
2022-09-26T05:42:40.578Z,20.60
2022-09-26T05:45:09.674Z,20.63
2022-09-26T05:47:39.441Z,21.17
2022-09-26T05:50:09.953Z,19.00
2022-09-26T05:52:39.009Z,19.20
2022-09-26T05:55:08.188Z,19.58
2022-09-26T05:57:36.521Z,19.20
2022-09-26T06:00:05.897Z,24.95
2022-09-26T06:02:34.908Z,19.50
2022-09-26T06:05:05.240Z,18.35
2022-09-26T06:07:34.001Z,18.80
2022-09-26T06:10:05.493Z,20.70
2022-09-26T06:12:35.612Z,18.55
2022-09-26T06:15:03.925Z,18.77
2022-09-26T06:17:32.308Z,18.05
2022-09-26T06:20:00.605Z,17.58
2022-09-26T06:22:30.334Z,17.98
2022-09-26T06:24:59.076Z,16.67
2022-09-26T06:27:27.416Z,17.42
2022-09-26T06:29:55.864Z,18.25
2022-09-26T06:32:24.163Z,16.98
2022-09-26T06:34:52.464Z,15.25
2022-09-26T06:37:21.083Z,18.00
2022-09-26T06:39:53.638Z,15.15
2022-09-26T06:42:24.988Z,16.77
2022-09-26T06:44:53.569Z,15.80
2022-09-26T06:47:22.211Z,17.98
2022-09-26T06:49:50.537Z,15.75
2022-09-26T06:52:18.855Z,9.00
2022-09-26T06:54:47.114Z,8.73
2022-09-26T06:57:16.959Z,8.60
2022-09-26T06:59:45.329Z,12.77
2022-09-26T07:02:16.343Z,11.45
2022-09-26T07:04:44.776Z,9.35
2022-09-26T07:07:13.074Z,7.88
2022-09-26T07:09:41.456Z,9.77
2022-09-26T07:12:14.997Z,8.13
2022-09-26T07:14:48.868Z,9.77
2022-09-26T07:17:21.284Z,9.65
2022-09-26T07:19:53.387Z,9.23
2022-09-26T07:22:21.663Z,10.10
2022-09-26T07:24:50.669Z,8.80
2022-09-26T07:27:18.977Z,9.07
2022-09-26T07:29:49.025Z,10.63
2022-09-26T07:32:17.422Z,10.73
2022-09-26T07:34:45.719Z,10.43
2022-09-26T07:37:14.316Z,10.10
2022-09-26T07:39:42.643Z,8.30
2022-09-26T07:42:11.011Z,9.65
2022-09-26T07:45:19.640Z,9.05
2022-09-26T07:47:51.051Z,8.95
2022-09-26T07:50:19.396Z,10.85
2022-09-26T07:52:50.157Z,9.68
2022-09-26T07:55:19.764Z,11.18
2022-09-26T07:57:50.184Z,9.67
2022-09-26T08:02:50.871Z,11.35
2022-09-26T08:05:20.644Z,11.77
2022-09-26T08:07:50.019Z,10.27
2022-09-26T08:10:22.112Z,11.95
2022-09-26T08:12:51.054Z,9.70
2022-09-26T08:15:19.673Z,10.73
2022-09-26T08:17:49.528Z,10.13
2022-09-26T08:20:18.393Z,9.32
2022-09-26T08:22:46.739Z,10.18
2022-09-26T08:25:15.108Z,9.05
2022-09-26T08:27:44.960Z,8.70
2022-09-26T08:30:13.586Z,9.57
2022-09-26T08:32:42.327Z,7.30
2022-09-26T08:35:12.349Z,8.50
2022-09-26T08:37:40.783Z,7.85
2022-09-26T08:40:10.069Z,5.72
2022-09-26T08:42:46.277Z,7.80
2022-09-26T08:45:53.732Z,6.70
2022-09-26T08:48:32.897Z,6.30
2022-09-26T08:51:12.304Z,6.15
2022-09-26T08:53:44.538Z,5.50
2022-09-26T08:56:20.330Z,7.13
2022-09-26T08:58:52.370Z,5.25
2022-09-26T09:01:26.570Z,7.38
2022-09-26T09:03:59.540Z,6.65
2022-09-26T09:06:29.956Z,7.22
2022-09-26T09:08:58.591Z,5.60
2022-09-26T09:11:43.366Z,6.90
2022-09-26T09:14:18.965Z,5.07
2022-09-26T09:16:56.076Z,5.88
2022-09-26T09:19:38.981Z,5.30
2022-09-26T09:22:29.068Z,5.28
2022-09-26T09:25:00.686Z,5.10
2022-09-26T09:28:03.951Z,6.25
2022-09-26T09:30:37.555Z,4.15
2022-09-26T09:33:09.978Z,4.07
2022-09-26T09:35:42.196Z,6.65
2022-09-26T09:38:16.280Z,5.47
2022-09-26T09:40:50.107Z,5.32
2022-09-26T09:43:26.857Z,4.80
2022-09-26T09:45:57.377Z,7.35
2022-09-26T09:51:05.638Z,4.68
2022-09-26T09:53:53.028Z,5.90
2022-09-26T09:56:27.496Z,5.10
2022-09-26T09:59:11.371Z,4.45
2022-09-26T10:01:42.439Z,4.90
2022-09-26T10:04:22.194Z,3.90
2022-09-26T10:06:52.903Z,4.20
2022-09-26T10:09:36.067Z,4.82
2022-09-26T10:12:14.547Z,4.35
2022-09-26T10:14:47.693Z,2.55
2022-09-26T10:17:25.387Z,4.65
2022-09-26T10:19:53.724Z,2.53
2022-09-26T10:22:29.416Z,3.92
2022-09-26T10:25:08.526Z,3.65
2022-09-26T10:27:38.526Z,2.40
2022-09-26T10:30:25.676Z,2.67
2022-09-26T10:32:57.021Z,3.08
2022-09-26T10:35:28.925Z,2.63
2022-09-26T10:38:01.858Z,2.85
2022-09-26T10:40:45.806Z,3.50
2022-09-26T10:43:23.739Z,3.25
2022-09-26T10:45:54.850Z,3.00
2022-09-26T10:48:36.042Z,3.33
2022-09-26T10:51:04.713Z,6.28
2022-09-26T10:53:38.538Z,3.50
2022-09-26T10:56:12.167Z,1.92
2022-09-26T10:58:43.150Z,3.40
2022-09-26T11:01:21.010Z,3.38
2022-09-26T11:03:50.470Z,6.05
2022-09-26T11:06:27.274Z,4.07
2022-09-26T11:09:03.057Z,5.57
2022-09-26T11:11:38.103Z,3.97
2022-09-26T11:14:08.651Z,4.28
2022-09-26T11:19:14.412Z,4.00
2022-09-26T11:21:46.288Z,3.67
2022-09-26T11:24:19.997Z,4.38
2022-09-26T11:27:00.862Z,4.32
2022-09-26T11:29:41.885Z,4.90
2022-09-26T11:32:14.857Z,6.07
2022-09-26T11:34:43.230Z,4.47
2022-09-26T11:37:30.862Z,4.93
2022-09-26T11:40:24.347Z,3.75
2022-09-26T11:43:06.873Z,2.88
2022-09-26T11:45:46.559Z,3.20
2022-09-26T11:50:56.736Z,2.78
2022-09-26T11:53:44.788Z,2.70
2022-09-26T11:56:30.057Z,1.65
2022-09-26T11:59:07.272Z,1.88
2022-09-26T12:01:42.215Z,4.18
2022-09-26T12:04:45.327Z,1.08
2022-09-26T12:07:18.721Z,1.52
2022-09-26T12:10:07.375Z,1.63
2022-09-26T12:12:42.478Z,2.45
2022-09-26T12:15:23.872Z,2.60
2022-09-26T12:18:04.870Z,2.35
2022-09-26T12:20:37.686Z,2.70
2022-09-26T12:23:14.324Z,4.32
2022-09-26T12:25:55.805Z,3.17
2022-09-26T12:28:35.256Z,3.70
2022-09-26T12:31:12.464Z,3.25
2022-09-26T12:33:56.754Z,2.50
2022-09-26T12:36:37.761Z,3.95
2022-09-26T12:39:16.851Z,2.65
2022-09-26T12:41:58.703Z,3.00
2022-09-26T12:44:41.511Z,2.47
2022-09-26T12:47:34.809Z,3.00
2022-09-26T12:50:18.073Z,1.55
2022-09-26T12:53:11.429Z,2.30
2022-09-26T12:55:45.069Z,1.98
2022-09-26T12:58:24.942Z,1.42
2022-09-26T13:00:58.891Z,3.28
2022-09-26T13:03:42.786Z,1.67
2022-09-26T13:06:34.611Z,2.38
2022-09-26T13:09:19.593Z,2.00
2022-09-26T13:12:00.240Z,1.75
2022-09-26T13:14:43.383Z,1.77
2022-09-26T13:17:15.682Z,1.60
2022-09-26T13:19:51.686Z,1.48
2022-09-26T13:22:27.795Z,1.15
2022-09-26T13:24:58.565Z,1.08
2022-09-26T13:27:34.257Z,1.05
2022-09-26T13:30:06.190Z,0.82
2022-09-26T13:32:47.650Z,6.57
2022-09-26T13:35:24.804Z,1.98
2022-09-26T13:38:14.517Z,0.85
2022-09-26T13:40:46.644Z,1.58
2022-09-26T13:43:24.515Z,1.20
2022-09-26T13:46:02.347Z,1.77
2022-09-26T13:48:38.543Z,1.75
2022-09-26T13:51:19.296Z,1.85
2022-09-26T13:53:55.858Z,2.83
2022-09-26T13:56:41.238Z,1.80
2022-09-26T13:59:28.717Z,2.35
2022-09-26T14:02:17.644Z,2.15
2022-09-26T14:04:46.622Z,2.15
2022-09-26T14:07:35.516Z,2.75
2022-09-26T14:10:21.611Z,2.83
2022-09-26T14:13:09.137Z,2.90
2022-09-26T14:15:59.896Z,2.03
2022-09-26T14:18:47.259Z,3.30
2022-09-26T14:21:33.527Z,2.35
2022-09-26T14:24:35.785Z,2.15
2022-09-26T14:27:07.046Z,3.40
2022-09-26T14:29:48.788Z,2.50
2022-09-26T14:32:18.705Z,2.75
2022-09-26T14:34:48.389Z,2.38
2022-09-26T14:37:32.487Z,2.90
2022-09-26T14:40:26.501Z,2.55
2022-09-26T14:43:03.018Z,2.83
2022-09-26T14:45:50.475Z,3.28
2022-09-26T14:48:28.598Z,2.42
2022-09-26T14:51:01.827Z,2.97
2022-09-26T14:53:34.977Z,2.90
2022-09-26T14:56:07.232Z,2.50
2022-09-26T14:58:48.741Z,4.82
2022-09-26T15:01:27.074Z,2.65
2022-09-26T15:03:58.050Z,4.32
2022-09-26T15:06:27.836Z,3.42
2022-09-26T15:08:59.322Z,2.70
2022-09-26T15:11:34.884Z,3.92
2022-09-26T15:14:12.431Z,3.17
2022-09-26T15:16:44.345Z,2.72
2022-09-26T15:19:14.847Z,3.33
2022-09-26T15:24:26.480Z,3.25
2022-09-26T15:26:58.496Z,3.17
2022-09-26T15:29:27.650Z,2.47
2022-09-26T15:31:57.649Z,5.03
2022-09-26T15:34:35.095Z,3.08
2022-09-26T15:37:10.259Z,3.72
2022-09-26T15:39:43.094Z,2.63
2022-09-26T15:42:45.710Z,4.63
2022-09-26T15:45:25.691Z,4.35
2022-09-26T15:47:55.402Z,3.53
2022-09-26T15:50:27.392Z,3.78
2022-09-26T15:52:59.457Z,3.15
2022-09-26T15:55:29.469Z,4.90
2022-09-26T15:58:00.801Z,3.42
2022-09-26T16:00:32.668Z,3.55
2022-09-26T16:03:29.429Z,2.97
2022-09-26T16:05:57.871Z,3.70
2022-09-26T16:08:29.161Z,2.95
2022-09-26T16:10:58.892Z,4.75
2022-09-26T16:13:32.771Z,3.95
2022-09-26T16:16:04.036Z,3.95
2022-09-26T16:18:39.641Z,3.40
2022-09-26T16:21:19.096Z,2.90
2022-09-26T16:23:49.388Z,4.07
2022-09-26T16:26:23.475Z,3.17
2022-09-26T16:28:54.470Z,3.40
2022-09-26T16:31:45.931Z,2.78
2022-09-26T16:34:22.368Z,2.92
2022-09-26T16:36:51.542Z,5.88
2022-09-26T16:39:22.570Z,3.63
2022-09-26T16:42:02.425Z,4.15
2022-09-26T16:44:36.360Z,4.22
2022-09-26T16:47:07.635Z,3.15
2022-09-26T16:49:45.730Z,3.85
2022-09-26T16:52:38.113Z,3.35
2022-09-26T16:55:07.885Z,4.35
2022-09-26T16:57:39.076Z,4.63
2022-09-26T17:00:34.743Z,4.25
2022-09-26T17:03:03.504Z,3.00
2022-09-26T17:05:31.943Z,3.45
2022-09-26T17:08:00.481Z,2.72
2022-09-26T17:10:28.902Z,6.28
2022-09-26T17:13:02.641Z,4.45
2022-09-26T17:15:34.532Z,4.55
2022-09-26T17:18:03.916Z,4.75
2022-09-26T17:20:32.405Z,3.60
2022-09-26T17:23:16.836Z,3.90
2022-09-26T17:25:55.375Z,2.92
2022-09-26T17:28:32.431Z,7.10
2022-09-26T17:31:06.533Z,3.55
2022-09-26T17:33:35.805Z,5.47
2022-09-26T17:36:04.309Z,4.70
2022-09-26T17:38:35.624Z,3.90
2022-09-26T17:41:07.426Z,4.20
2022-09-26T17:43:36.028Z,5.90
2022-09-26T17:46:06.376Z,4.22
2022-09-26T17:48:35.734Z,4.60
2022-09-26T17:51:05.883Z,4.40
2022-09-26T17:53:49.548Z,3.75
2022-09-26T17:56:19.343Z,5.63
2022-09-26T17:58:49.186Z,4.20
2022-09-26T18:01:24.109Z,6.72
2022-09-26T18:03:56.231Z,3.78
2022-09-26T18:06:26.845Z,3.65
2022-09-26T18:11:29.272Z,2.67
2022-09-26T18:14:03.469Z,3.93
2022-09-26T18:16:36.060Z,4.50
2022-09-26T18:19:07.589Z,3.15
2022-09-26T18:21:36.616Z,5.38
2022-09-26T18:24:06.886Z,4.57
2022-09-26T18:26:37.888Z,4.55
2022-09-26T18:29:08.203Z,3.20
2022-09-26T18:34:16.512Z,3.45
2022-09-26T18:36:45.390Z,3.67
2022-09-26T18:39:14.585Z,3.58
2022-09-26T18:41:45.089Z,4.60
2022-09-26T18:44:16.972Z,3.65
2022-09-26T18:46:48.225Z,4.80
2022-09-26T18:49:16.842Z,4.88
2022-09-26T18:51:46.399Z,3.97
2022-09-26T18:54:17.259Z,4.68
2022-09-26T18:57:03.519Z,4.07
2022-09-26T18:59:32.305Z,3.42
2022-09-26T19:02:02.808Z,4.80
2022-09-26T19:07:02.074Z,3.63
2022-09-26T19:09:34.467Z,2.80
2022-09-26T19:12:03.632Z,3.75
2022-09-26T19:14:32.701Z,3.28
2022-09-26T19:17:02.956Z,3.63
2022-09-26T19:19:32.580Z,3.58
2022-09-26T19:22:03.266Z,4.63
2022-09-26T19:27:06.068Z,3.72
2022-09-26T19:29:38.215Z,4.10
2022-09-26T19:32:08.546Z,3.50
2022-09-26T19:34:36.929Z,3.00
2022-09-26T19:37:06.430Z,3.60
2022-09-26T19:39:34.854Z,3.15
2022-09-26T19:42:03.335Z,3.92
2022-09-26T19:44:33.112Z,4.82
2022-09-26T19:47:04.809Z,3.38
2022-09-26T19:49:34.647Z,3.60
2022-09-26T19:52:03.108Z,3.50
2022-09-26T19:54:31.557Z,4.68
2022-09-26T19:57:00.344Z,3.35
2022-09-26T19:59:28.806Z,3.80
2022-09-26T20:01:57.450Z,3.20
2022-09-26T20:04:26.004Z,3.85
2022-09-26T20:06:55.879Z,3.20
2022-09-26T20:09:24.249Z,4.15
2022-09-26T20:11:52.658Z,3.25
2022-09-26T20:14:27.136Z,3.25
2022-09-26T20:16:57.537Z,4.20
2022-09-26T20:19:32.080Z,5.78
2022-09-26T20:22:03.252Z,6.80
2022-09-26T20:24:33.312Z,4.25
2022-09-26T20:27:03.666Z,5.25
2022-09-26T20:29:52.061Z,4.72
2022-09-26T20:32:20.735Z,3.92
2022-09-26T20:34:49.495Z,3.00
2022-09-26T20:37:19.846Z,4.60
2022-09-26T20:39:48.314Z,4.18
2022-09-26T20:42:18.878Z,5.05
2022-09-26T20:47:19.687Z,5.07
2022-09-26T20:49:52.527Z,4.95
2022-09-26T20:52:24.189Z,4.45
2022-09-26T20:54:53.224Z,3.47
2022-09-26T20:57:22.295Z,3.95
2022-09-26T20:59:51.323Z,3.75
2022-09-26T21:02:28.559Z,3.35
2022-09-26T21:04:57.677Z,4.28
2022-09-26T21:07:27.443Z,3.72
2022-09-26T21:09:55.834Z,4.22
2022-09-26T21:12:24.282Z,4.55
2022-09-26T21:14:52.638Z,3.35
2022-09-26T21:17:22.947Z,3.90
2022-09-26T21:19:51.516Z,3.08
2022-09-26T21:22:20.637Z,4.07
2022-09-26T21:24:50.592Z,4.47
2022-09-26T21:27:18.989Z,4.32
2022-09-26T21:29:47.331Z,6.78
2022-09-26T21:32:17.869Z,4.22
2022-09-26T21:37:15.112Z,4.90
2022-09-26T21:39:43.763Z,4.50
2022-09-26T21:42:13.666Z,3.90
2022-09-26T21:44:44.974Z,3.90
2022-09-26T21:47:13.821Z,3.95
2022-09-26T21:49:42.345Z,3.97
2022-09-26T21:52:12.737Z,3.28
2022-09-26T21:54:43.761Z,3.70
2022-09-26T21:57:15.676Z,4.32
2022-09-26T21:59:44.182Z,2.80
2022-09-26T22:02:12.722Z,2.20
2022-09-26T22:04:41.126Z,4.43
2022-09-26T22:07:09.520Z,3.25
2022-09-26T22:09:37.901Z,4.50
2022-09-26T22:12:06.319Z,3.38
2022-09-26T22:14:36.436Z,2.75
2022-09-26T22:17:04.921Z,2.25
2022-09-26T22:19:35.203Z,2.80
2022-09-26T22:22:04.218Z,3.38
2022-09-26T22:24:33.307Z,3.35
2022-09-26T22:27:01.669Z,2.08
2022-09-26T22:29:30.065Z,2.45
2022-09-26T22:31:59.869Z,2.85
2022-09-26T22:34:28.239Z,2.17
2022-09-26T22:36:56.869Z,3.55
2022-09-26T22:39:25.269Z,3.88
2022-09-26T22:41:53.862Z,2.17
2022-09-26T22:44:22.553Z,2.20
2022-09-26T22:46:50.906Z,1.92
2022-09-26T22:49:20.729Z,1.90
2022-09-26T22:51:49.114Z,3.35
2022-09-26T22:54:17.684Z,2.67
2022-09-26T22:56:46.036Z,2.90
2022-09-26T22:59:14.633Z,1.90
2022-09-26T23:01:43.617Z,1.50
2022-09-26T23:04:12.072Z,2.03
2022-09-26T23:06:41.818Z,2.30
2022-09-26T23:09:10.240Z,3.55
2022-09-26T23:11:38.687Z,2.25
2022-09-26T23:14:07.073Z,2.78
2022-09-26T23:16:35.511Z,2.20
2022-09-26T23:19:04.037Z,2.38
2022-09-26T23:21:32.421Z,2.60
2022-09-26T23:24:02.638Z,2.85
2022-09-26T23:26:32.509Z,4.82
2022-09-26T23:29:01.233Z,2.30
2022-09-26T23:31:29.894Z,4.57
2022-09-26T23:33:58.609Z,4.80
2022-09-26T23:36:27.320Z,2.13
2022-09-26T23:38:58.074Z,1.98
2022-09-26T23:41:27.839Z,3.50
2022-09-26T23:43:56.197Z,3.65
2022-09-26T23:46:24.581Z,3.72
2022-09-26T23:48:53.043Z,2.78
2022-09-26T23:51:21.731Z,2.30
2022-09-26T23:53:50.141Z,3.13
2022-09-26T23:56:18.919Z,2.10
2022-09-26T23:58:49.026Z,5.20
